Flight Track Log - Related Links

Times and Time Zones

All times are in EST time to prevent confusion due to time zone crossing. See the N17773 flight status page for this flight to view local times or setup timezone preferences in your user account.

Time Position Orientation Groundspeed Altitude Reporting Facility
EST Latitude Longitude Course Direction KTS MPH feet Rate Location/Type
Sun 12:33:20 AM 41.9833 -87.9500 270° West 159 183 2,000  Level Chicago TRACON
Sun 12:34:20 AM 41.9833 -88.0167 270° West 205 236 3,500 1,400 Climbing Chicago TRACON
Sun 12:35:20 AM 41.9167 -88.0500 200° South 264 304 4,800 1,684 Climbing Chicago TRACON
Sun 12:36:14 AM 41.8592 -88.0472 178° South 264 304 6,700 2,000 Climbing Chicago Center
Sun 12:37:14 AM 41.7825 -88.0394 176° South 275 316 8,600 1,600 Climbing Chicago Center
Sun 12:38:14 AM 41.7053 -88.0064 162° South 292 336 9,900 397 Climbing Chicago Center
Sun 12:39:15 AM 41.6456 -87.9425 141° Southeast 309 356 9,400 -942 Descending Chicago Center
Sun 12:40:15 AM 41.6881 -87.8661 53° Northeast 265 305 8,000 -1,450 Descending Chicago Center
Sun 12:41:15 AM 41.7444 -87.8097 37° Northeast 255 293 6,500 -1,300 Descending Chicago Center
Sun 12:42:15 AM 41.7992 -87.7569 36° Northeast 245 282 5,400 -750 Descending Chicago Center
Sun 12:43:15 AM 41.8514 -87.7039 37° Northeast 240 276 5,000 -595 Descending Chicago Center
Sun 12:44:16 AM 41.9097 -87.6875 12° North 230 265 4,200 -843 Descending Chicago Center
Sun 12:45:16 AM 41.9622 -87.7169 337° Northwest 215 247 3,300 -950 Descending Chicago Center
Sun 12:46:16 AM 41.9694 -87.7856 278° West 202 232 2,300 -950 Descending Chicago Center
Sun 12:47:16 AM 41.9700 -87.8425 271° West 175 201 1,400 -923 Descending Chicago Center
Sun 12:47:47 AM 41.9667 -87.8667 259° West 141 162 900 -968 Descending Chicago TRACON
Sun 12:50:00 AM 41.9667 -87.9000 277° West  Level FlightAware Approximate
Sun 12:57:00 AM 41.9817 -87.9067 277° West  Level Estimated
Sun 12:58:00 AM 41.9817 -87.9067 277° West  Level Estimated
Sun 12:59:00 AM 41.9817 -87.9067 277° West  Level Estimated
Sun 01:00:00 AM 41.9817 -87.9067 277° West  Level Estimated
Sun 01:01:00 AM 41.9817 -87.9067 277° West  Level Estimated
Sun 01:02:00 AM 41.9817 -87.9067 277° West  Level Estimated
Sun 01:03:00 AM 41.9817 -87.9067 277° West  Level Estimated
Sun 01:04:00 AM 41.9817 -87.9067 277° West  Level Estimated

Login

Don't have an account? Register now (free) for customized features, flight alerts, and more!